Flight Track Log - Related Links

Times and Time Zones

All times are in EDT time to prevent confusion due to time zone crossing. See the CTL18 flight status page for this flight to view local times or setup timezone preferences in your user account.

Time Position Orientation Groundspeed Altitude Reporting Facility
EDT Latitude Longitude Course Direction KTS MPH feet Rate Location/Type
Thu 09:12:35 PM 42.1914 -83.5933 224° Southwest 135 155 2,200  Level Cleveland Center
Thu 09:13:36 PM 42.1558 -83.6000 188° South 128 147 3,000 393 Climbing Cleveland Center
Thu 09:14:37 PM 42.1186 -83.5842 162° South 151 174 3,000  Level Cleveland Center
Thu 09:15:31 PM 42.0925 -83.5522 138° Southeast 156 180 3,000 -52 Level Cleveland Center
Thu 09:16:32 PM 42.0647 -83.5006 126° Southeast 160 184 2,900  Descending Cleveland Center
Thu 09:17:33 PM 42.0472 -83.4439 113° Southeast 160 184 3,000 49 Climbing Cleveland Center
Thu 09:18:34 PM 42.0319 -83.3900 111° Southeast 156 180 3,000 197 Level Cleveland Center
Thu 09:19:35 PM 42.0164 -83.3389 112° Southeast 151 174 3,400 492 Climbing Cleveland Center
Thu 09:20:36 PM 41.9969 -83.2850 116° Southeast 140 161 4,000 541 Climbing Cleveland Center
Thu 09:21:48 PM 41.9836 -83.2314 108° East 140 161 4,600 451 Climbing Cleveland Center
Thu 09:22:49 PM 41.9639 -83.1803 117° Southeast 139 160 5,000 197 Climbing Cleveland Center
Thu 09:23:50 PM 41.9464 -83.1294 115° Southeast 163 188 5,000  Level Cleveland Center
Thu 09:24:50 PM 41.9286 -83.0783 115° Southeast 150 173 5,000  Level Cleveland Center
Thu 09:25:51 PM 41.9131 -83.0247 111° Southeast 148 170 5,000  Level Cleveland Center
Thu 09:26:16 PM 41.9092 -83.0078 107° East 148 170 5,000  Level Cleveland Center
Thu 09:26:46 PM 41.8994 -82.9822 117° Southeast 148 170 5,000  Level Cleveland Center
Thu 09:27:53 PM 41.8839 -82.9233 110° East 151 174 5,000  Level Cleveland Center
Thu 09:28:54 PM 41.8683 -82.8697 111° Southeast 147 169 5,000  Level Cleveland Center
Thu 09:29:54 PM 41.8547 -82.8161 109° East 151 174 5,000  Level Cleveland Center
Thu 09:30:55 PM 41.8372 -82.7625 114° Southeast 152 175 5,000  Level Cleveland Center
Thu 09:31:56 PM 41.8192 -82.7119 116° Southeast 150 173 5,000  Level Cleveland Center
Thu 09:32:56 PM 41.8078 -82.6586 106° East 152 175 5,000 -52 Level Cleveland Center
Thu 09:33:51 PM 41.7919 -82.6106 114° Southeast 152 175 4,900 -261 Descending Cleveland Center
Thu 09:34:51 PM 41.7742 -82.5544 113° Southeast 163 188 4,500 -397 Descending Cleveland Center
Thu 09:35:52 PM 41.7583 -82.4956 110° East 167 192 4,100 -344 Descending Cleveland Center
Thu 09:36:53 PM 41.7428 -82.4367 109° East 166 191 3,800 -313 Descending Cleveland Center
Thu 09:37:47 PM 41.7247 -82.3858 115° Southeast 163 188 3,500 -365 Descending Cleveland Center
Thu 09:38:48 PM 41.7111 -82.3272 107° East 164 189 3,100 -313 Descending Cleveland Center
Thu 09:39:42 PM 41.6972 -82.2767 110° East 156 180 2,900 -209 Descending Cleveland Center
Thu 09:40:43 PM 41.6792 -82.2289 117° Southeast 148 170 2,700 -149 Descending Cleveland Center
Thu 09:41:43 PM 41.6633 -82.1786 113° Southeast 143 165 2,600 -198 Descending Cleveland Center
Thu 09:42:44 PM 41.6494 -82.1281 110° East 149 171 2,300 -246 Descending Cleveland Center
Thu 09:43:45 PM 41.6356 -82.0750 109° East 148 170 2,100 -142 Descending Cleveland Center
Thu 09:44:51 PM 41.6153 -82.0192 116° Southeast 141 162 2,000 -94 Descending Cleveland Center
Thu 09:45:52 PM 41.5992 -81.9714 114° Southeast 143 165 1,900 -148 Descending Cleveland Center
Thu 09:46:53 PM 41.5831 -81.9211 113° Southeast 144 166 1,700 -197 Descending Cleveland Center

Login

Don't have an account? Register now (free) for customized features, flight alerts, and more!